Time,TemperatureF,DewpointF,PressureIn,WindDirection,WindDirectionDegrees,WindSpeedMPH,WindSpeedGustMPH,Humidity,HourlyPrecipIn,Conditions,Clouds,dailyrainin,SoftwareType,DateUTC
2013-06-07 00:14:00,69.0,68.0,29.73,NE,53,0.0,1.0,96,0.00,,,0.00,weatherlink.com 1.10,2013-06-07 05:14:00,
2013-06-07 00:29:00,68.8,68.0,29.73,NE,52,0.0,0.0,97,0.00,,,0.00,weatherlink.com 1.10,2013-06-07 05:29:00,
2013-06-07 00:44:00,68.5,68.0,29.73,NE,53,0.0,0.0,97,0.00,,,0.00,weatherlink.com 1.10,2013-06-07 05:44:00,
2013-06-07 00:59:00,68.6,68.0,29.75,WSW,243,0.0,1.0,97,0.00,,,0.00,weatherlink.com 1.10,2013-06-07 05:59:00,
2013-06-07 01:14:00,68.7,68.0,29.74,SSW,213,0.0,4.0,98,0.00,,,0.00,weatherlink.com 1.10,2013-06-07 06:14:00,
2013-06-07 01:29:00,68.5,68.0,29.74,ENE,71,0.0,1.0,98,0.00,,,0.00,weatherlink.com 1.10,2013-06-07 06:29:00,
2013-06-07 01:44:00,68.3,68.0,29.74,East,97,0.0,1.0,98,0.00,,,0.00,weatherlink.com 1.10,2013-06-07 06:44:00,
2013-06-07 01:59:00,68.0,68.0,29.73,East,97,0.0,0.0,98,0.00,,,0.00,weatherlink.com 1.10,2013-06-07 06:59:00,
2013-06-07 02:14:00,67.8,67.0,29.73,SE,146,0.0,0.0,98,0.00,,,0.00,weatherlink.com 1.10,2013-06-07 07:14:00,
2013-06-07 02:29:00,67.7,67.0,29.73,SE,146,0.0,0.0,98,0.00,,,0.00,weatherlink.com 1.10,2013-06-07 07:29:00,
2013-06-07 02:44:00,67.6,67.0,29.73,SE,146,0.0,0.0,98,0.00,,,0.00,weatherlink.com 1.10,2013-06-07 07:44:00,
2013-06-07 02:59:00,67.3,67.0,29.73,SSE,148,0.0,0.0,98,0.00,,,0.00,weatherlink.com 1.10,2013-06-07 07:59:00,
2013-06-07 03:14:00,67.3,67.0,29.75,WNW,302,2.0,3.0,98,0.00,,,0.00,weatherlink.com 1.10,2013-06-07 08:14:00,
2013-06-07 03:29:00,67.3,67.0,29.76,West,262,0.0,2.0,98,0.00,,,0.00,weatherlink.com 1.10,2013-06-07 08:29:00,
2013-06-07 03:44:00,67.3,67.0,29.76,West,263,0.0,2.0,98,0.00,,,0.00,weatherlink.com 1.10,2013-06-07 08:44:00,
2013-06-07 03:59:00,67.4,67.0,29.75,West,281,0.0,2.0,98,0.00,,,0.00,weatherlink.com 1.10,2013-06-07 08:59:00,
2013-06-07 04:14:00,67.3,67.0,29.76,West,269,0.0,2.0,98,0.00,,,0.00,weatherlink.com 1.10,2013-06-07 09:14:00,
2013-06-07 04:29:00,67.3,67.0,29.77,WNW,298,1.0,2.0,98,0.00,,,0.00,weatherlink.com 1.10,2013-06-07 09:29:00,
2013-06-07 04:44:00,67.3,67.0,29.76,NW,305,0.0,2.0,98,0.00,,,0.00,weatherlink.com 1.10,2013-06-07 09:44:00,
2013-06-07 04:59:00,67.2,67.0,29.76,West,278,0.0,1.0,98,0.00,,,0.00,weatherlink.com 1.10,2013-06-07 09:59:00,
2013-06-07 05:14:00,67.0,67.0,29.76,WNW,290,0.0,1.0,98,0.00,,,0.00,weatherlink.com 1.10,2013-06-07 10:14:00,
2013-06-07 05:29:00,66.7,66.0,29.76,West,266,0.0,1.0,98,0.00,,,0.00,weatherlink.com 1.10,2013-06-07 10:29:00,
2013-06-07 05:44:00,66.5,66.0,29.77,West,266,0.0,0.0,98,0.00,,,0.00,weatherlink.com 1.10,2013-06-07 10:44:00,
2013-06-07 05:59:00,66.6,66.0,29.77,West,266,0.0,1.0,99,0.00,,,0.00,weatherlink.com 1.10,2013-06-07 10:59:00,
2013-06-07 06:14:00,66.9,67.0,29.77,West,264,1.0,2.0,99,0.00,,,0.00,weatherlink.com 1.10,2013-06-07 11:14:00,
2013-06-07 06:30:00,67.0,67.0,29.77,NW,313,1.0,4.0,99,0.00,,,0.00,weatherlink.com 1.10,2013-06-07 11:30:00,
2013-06-07 06:45:00,67.1,67.0,29.79,WNW,293,0.0,5.0,99,0.00,,,0.00,weatherlink.com 1.10,2013-06-07 11:45:00,
2013-06-07 07:00:00,67.6,67.0,29.79,NE,49,0.0,2.0,99,0.00,,,0.00,weatherlink.com 1.10,2013-06-07 12:00:00,
2013-06-07 07:15:00,68.1,68.0,29.79,NW,307,2.0,2.0,99,0.00,,,0.00,weatherlink.com 1.10,2013-06-07 12:15:00,
2013-06-07 07:30:00,68.4,68.0,29.80,WNW,300,1.0,2.0,98,0.00,,,0.00,weatherlink.com 1.10,2013-06-07 12:30:00,
2013-06-07 07:45:00,68.7,68.0,29.80,NW,318,1.0,2.0,97,0.00,,,0.00,weatherlink.com 1.10,2013-06-07 12:45:00,
2013-06-07 08:00:00,69.8,69.0,29.81,ESE,108,1.0,4.0,96,0.00,,,0.00,weatherlink.com 1.10,2013-06-07 13:00:00,
2013-06-07 08:15:00,70.1,69.0,29.82,South,184,0.0,4.0,95,0.00,,,0.00,weatherlink.com 1.10,2013-06-07 13:15:00,
2013-06-07 08:30:00,70.4,69.0,29.82,West,278,0.0,2.0,94,0.00,,,0.00,weatherlink.com 1.10,2013-06-07 13:30:00,
2013-06-07 08:45:00,71.3,69.0,29.82,WSW,246,1.0,2.0,92,0.00,,,0.00,weatherlink.com 1.10,2013-06-07 13:45:00,
2013-06-07 09:00:00,72.1,69.0,29.82,West,278,3.0,4.0,89,0.00,,,0.00,weatherlink.com 1.10,2013-06-07 14:00:00,
2013-06-07 09:15:00,72.9,70.0,29.82,SW,229,2.0,4.0,89,0.00,,,0.00,weatherlink.com 1.10,2013-06-07 14:15:00,
2013-06-07 09:30:00,74.0,70.0,29.82,WSW,242,1.0,3.0,86,0.00,,,0.00,weatherlink.com 1.10,2013-06-07 14:30:00,
2013-06-07 09:45:00,74.8,70.0,29.82,ENE,71,2.0,2.0,86,0.00,,,0.00,weatherlink.com 1.10,2013-06-07 14:45:00,
2013-06-07 10:00:00,74.8,70.0,29.83,West,273,0.0,2.0,86,0.00,,,0.00,weatherlink.com 1.10,2013-06-07 15:00:00,
2013-06-07 10:15:00,74.3,70.0,29.83,NW,309,0.0,3.0,86,0.00,,,0.00,weatherlink.com 1.10,2013-06-07 15:15:00,
2013-06-07 10:30:00,74.1,70.0,29.83,WSW,243,0.0,5.0,86,0.00,,,0.00,weatherlink.com 1.10,2013-06-07 15:30:00,
2013-06-07 10:45:00,74.6,70.0,29.83,NW,323,0.0,3.0,85,0.00,,,0.00,weatherlink.com 1.10,2013-06-07 15:45:00,
2013-06-07 11:00:00,76.7,71.0,29.84,NW,316,0.0,5.0,82,0.00,,,0.00,weatherlink.com 1.10,2013-06-07 16:00:00,
2013-06-07 11:15:00,79.5,71.0,29.83,East,84,0.0,3.0,76,0.00,,,0.00,weatherlink.com 1.10,2013-06-07 16:15:00,
2013-06-07 11:30:00,80.4,71.0,29.84,WNW,290,0.0,5.0,72,0.00,,,0.00,weatherlink.com 1.10,2013-06-07 16:30:00,
2013-06-07 11:45:00,82.3,71.0,29.83,ESE,121,3.0,5.0,68,0.00,,,0.00,weatherlink.com 1.10,2013-06-07 16:45:00,
2013-06-07 12:00:00,83.0,72.0,29.83,WSW,250,1.0,4.0,69,0.00,,,0.00,weatherlink.com 1.10,2013-06-07 17:00:00,
2013-06-07 12:15:00,84.1,71.0,29.83,NNE,22,0.0,4.0,65,0.00,,,0.00,weatherlink.com 1.10,2013-06-07 17:15:00,
2013-06-07 12:30:00,82.8,72.0,29.83,NNW,338,0.0,4.0,69,0.00,,,0.00,weatherlink.com 1.10,2013-06-07 17:30:00,
2013-06-07 12:46:00,81.3,71.0,29.83,West,276,0.0,6.0,72,0.00,,,0.00,weatherlink.com 1.10,2013-06-07 17:46:00,
2013-06-07 13:01:00,81.5,72.0,29.82,North,8,0.0,3.0,73,0.00,,,0.00,weatherlink.com 1.10,2013-06-07 18:01:00,
2013-06-07 13:31:00,83.7,71.0,29.82,East,101,1.0,7.0,66,0.00,,,0.00,weatherlink.com 1.10,2013-06-07 18:31:00,
2013-06-07 14:01:00,79.9,70.0,29.82,WSW,248,6.0,7.0,72,0.00,,,0.00,weatherlink.com 1.10,2013-06-07 19:01:00,
2013-06-07 14:31:00,82.0,72.0,29.80,NW,305,4.0,8.0,71,0.00,,,0.00,weatherlink.com 1.10,2013-06-07 19:31:00,
2013-06-07 14:46:00,82.6,71.0,29.80,WNW,284,1.0,9.0,67,0.00,,,0.00,weatherlink.com 1.10,2013-06-07 19:46:00,
2013-06-07 15:01:00,82.8,71.0,29.80,WNW,292,3.0,5.0,68,0.00,,,0.00,weatherlink.com 1.10,2013-06-07 20:01:00,
2013-06-07 15:16:00,83.4,70.0,29.80,WNW,303,1.0,7.0,65,0.00,,,0.00,weatherlink.com 1.10,2013-06-07 20:16:00,
2013-06-07 15:46:00,84.0,70.0,29.79,NNW,330,2.0,5.0,62,0.00,,,0.00,weatherlink.com 1.10,2013-06-07 20:46:00,
2013-06-07 16:01:00,84.1,70.0,29.80,WSW,249,1.0,4.0,62,0.00,,,0.00,weatherlink.com 1.10,2013-06-07 21:01:00,
2013-06-07 16:16:00,82.4,69.0,29.79,South,169,2.0,6.0,63,0.00,,,0.00,weatherlink.com 1.10,2013-06-07 21:16:00,
2013-06-07 16:31:00,83.9,69.0,29.79,SSW,204,3.0,7.0,61,0.00,,,0.00,weatherlink.com 1.10,2013-06-07 21:31:00,
2013-06-07 16:47:00,82.9,70.0,29.79,SW,224,2.0,7.0,65,0.00,,,0.00,weatherlink.com 1.10,2013-06-07 21:47:00,
2013-06-07 17:01:00,84.1,70.0,29.78,NW,318,2.0,6.0,63,0.00,,,0.00,weatherlink.com 1.10,2013-06-07 22:01:00,
2013-06-07 17:16:00,83.4,70.0,29.79,East,90,2.0,7.0,65,0.00,,,0.00,weatherlink.com 1.10,2013-06-07 22:16:00,
2013-06-07 17:31:00,81.9,70.0,29.79,NW,306,0.0,5.0,68,0.00,,,0.00,weatherlink.com 1.10,2013-06-07 22:31:00,
2013-06-07 17:46:00,81.1,70.0,29.79,West,267,1.0,7.0,69,0.00,,,0.00,weatherlink.com 1.10,2013-06-07 22:46:00,
2013-06-07 18:01:00,79.1,71.0,29.80,NNW,328,1.0,6.0,75,0.00,,,0.00,weatherlink.com 1.10,2013-06-07 23:01:00,
2013-06-07 18:16:00,77.5,71.0,29.81,WNW,290,0.0,3.0,81,0.00,,,0.00,weatherlink.com 1.10,2013-06-07 23:16:00,
2013-06-07 20:01:00,72.1,70.0,29.84,West,269,0.0,1.0,93,0.00,,,0.01,weatherlink.com 1.10,2013-06-08 01:01:00,
2013-06-07 20:46:00,70.3,69.0,29.86,West,269,0.0,0.0,95,0.00,,,0.01,weatherlink.com 1.10,2013-06-08 01:46:00,
2013-06-07 21:16:00,69.5,68.0,29.88,West,269,0.0,0.0,96,0.00,,,0.01,weatherlink.com 1.10,2013-06-08 02:16:00,
2013-06-07 21:31:00,69.3,69.0,29.88,West,269,0.0,0.0,97,0.00,,,0.01,weatherlink.com 1.10,2013-06-08 02:31:00,
2013-06-07 22:01:00,68.7,68.0,29.89,West,269,0.0,0.0,97,0.00,,,0.01,weatherlink.com 1.10,2013-06-08 03:01:00,
2013-06-07 22:16:00,68.4,68.0,29.89,West,269,0.0,0.0,97,0.00,,,0.01,weatherlink.com 1.10,2013-06-08 03:16:00,
2013-06-07 22:31:00,68.1,67.0,29.90,West,269,0.0,0.0,97,0.00,,,0.01,weatherlink.com 1.10,2013-06-08 03:31:00,
2013-06-07 22:46:00,67.9,67.0,29.90,West,269,0.0,0.0,97,0.00,,,0.01,weatherlink.com 1.10,2013-06-08 03:46:00,
2013-06-07 23:16:00,67.4,67.0,29.91,West,269,0.0,0.0,98,0.00,,,0.01,weatherlink.com 1.10,2013-06-08 04:16:00,
2013-06-07 23:46:00,66.9,66.0,29.91,West,269,0.0,0.0,98,0.00,,,0.01,weatherlink.com 1.10,2013-06-08 04:46:00,